sensor_id;sensor_type;location;lat;lon;timestamp;P1;durP1;ratioP1;P2;durP2;ratioP2
7933;SDS011;4012;48.896;9.192;2022-07-29T00:02:02;5.00;;;4.17;;
7933;SDS011;4012;48.896;9.192;2022-07-29T00:04:28;5.77;;;4.50;;
7933;SDS011;4012;48.896;9.192;2022-07-29T00:06:53;5.87;;;4.33;;
7933;SDS011;4012;48.896;9.192;2022-07-29T00:09:19;4.50;;;4.10;;
7933;SDS011;4012;48.896;9.192;2022-07-29T00:11:45;6.10;;;4.13;;
7933;SDS011;4012;48.896;9.192;2022-07-29T00:14:10;4.80;;;4.20;;
7933;SDS011;4012;48.896;9.192;2022-07-29T00:16:36;7.80;;;3.97;;
7933;SDS011;4012;48.896;9.192;2022-07-29T00:19:02;4.90;;;4.40;;
7933;SDS011;4012;48.896;9.192;2022-07-29T00:21:28;4.63;;;4.00;;
7933;SDS011;4012;48.896;9.192;2022-07-29T00:23:54;8.83;;;3.97;;
7933;SDS011;4012;48.896;9.192;2022-07-29T00:26:19;6.50;;;4.70;;
7933;SDS011;4012;48.896;9.192;2022-07-29T00:28:45;5.23;;;4.20;;
7933;SDS011;4012;48.896;9.192;2022-07-29T00:31:10;6.07;;;4.27;;
7933;SDS011;4012;48.896;9.192;2022-07-29T00:33:36;4.60;;;4.00;;
7933;SDS011;4012;48.896;9.192;2022-07-29T00:36:02;5.77;;;5.00;;
7933;SDS011;4012;48.896;9.192;2022-07-29T00:38:27;5.30;;;4.40;;
7933;SDS011;4012;48.896;9.192;2022-07-29T00:40:53;7.47;;;4.67;;
7933;SDS011;4012;48.896;9.192;2022-07-29T00:43:19;9.30;;;4.50;;
7933;SDS011;4012;48.896;9.192;2022-07-29T00:45:44;4.80;;;4.40;;
7933;SDS011;4012;48.896;9.192;2022-07-29T00:48:10;7.77;;;4.80;;
7933;SDS011;4012;48.896;9.192;2022-07-29T00:50:36;9.10;;;4.07;;
7933;SDS011;4012;48.896;9.192;2022-07-29T00:53:02;4.73;;;4.27;;
7933;SDS011;4012;48.896;9.192;2022-07-29T00:55:29;4.70;;;4.07;;
7933;SDS011;4012;48.896;9.192;2022-07-29T00:57:54;8.30;;;4.60;;
7933;SDS011;4012;48.896;9.192;2022-07-29T01:00:23;5.67;;;4.20;;
7933;SDS011;4012;48.896;9.192;2022-07-29T01:02:51;4.77;;;4.00;;
7933;SDS011;4012;48.896;9.192;2022-07-29T01:05:18;5.73;;;4.10;;
7933;SDS011;4012;48.896;9.192;2022-07-29T01:07:48;4.30;;;3.90;;
7933;SDS011;4012;48.896;9.192;2022-07-29T01:10:16;6.73;;;4.60;;
7933;SDS011;4012;48.896;9.192;2022-07-29T01:12:46;4.80;;;4.30;;
7933;SDS011;4012;48.896;9.192;2022-07-29T01:15:13;6.30;;;4.13;;
7933;SDS011;4012;48.896;9.192;2022-07-29T01:17:43;4.47;;;4.07;;
7933;SDS011;4012;48.896;9.192;2022-07-29T01:31:33;7.27;;;4.70;;
7933;SDS011;4012;48.896;9.192;2022-07-29T01:34:27;5.77;;;4.00;;
7933;SDS011;4012;48.896;9.192;2022-07-29T01:39:37;6.47;;;4.47;;
7933;SDS011;4012;48.896;9.192;2022-07-29T01:44:37;7.37;;;4.40;;
7933;SDS011;4012;48.896;9.192;2022-07-29T01:47:11;5.93;;;4.60;;
7933;SDS011;4012;48.896;9.192;2022-07-29T01:49:41;4.47;;;3.90;;
7933;SDS011;4012;48.896;9.192;2022-07-29T01:52:37;4.90;;;4.50;;
7933;SDS011;4012;48.896;9.192;2022-07-29T01:55:10;6.17;;;4.50;;
7933;SDS011;4012;48.896;9.192;2022-07-29T01:57:38;6.70;;;4.63;;
7933;SDS011;4012;48.896;9.192;2022-07-29T02:00:07;7.67;;;4.70;;
7933;SDS011;4012;48.896;9.192;2022-07-29T02:02:33;7.97;;;4.67;;
7933;SDS011;4012;48.896;9.192;2022-07-29T02:05:02;8.03;;;4.53;;
7933;SDS011;4012;48.896;9.192;2022-07-29T02:07:31;6.57;;;4.40;;
7933;SDS011;4012;48.896;9.192;2022-07-29T02:09:58;6.17;;;4.83;;
7933;SDS011;4012;48.896;9.192;2022-07-29T02:12:27;5.13;;;4.60;;
7933;SDS011;4012;48.896;9.192;2022-07-29T02:14:54;6.13;;;4.30;;
7933;SDS011;4012;48.896;9.192;2022-07-29T02:17:25;5.93;;;4.80;;
7933;SDS011;4012;48.896;9.192;2022-07-29T02:19:56;5.77;;;4.50;;
7933;SDS011;4012;48.896;9.192;2022-07-29T02:22:25;6.10;;;5.30;;
7933;SDS011;4012;48.896;9.192;2022-07-29T02:24:53;6.30;;;4.67;;
7933;SDS011;4012;48.896;9.192;2022-07-29T02:27:20;6.20;;;4.90;;
7933;SDS011;4012;48.896;9.192;2022-07-29T02:29:47;5.83;;;4.83;;
7933;SDS011;4012;48.896;9.192;2022-07-29T02:32:15;5.97;;;4.77;;
7933;SDS011;4012;48.896;9.192;2022-07-29T02:34:42;5.53;;;4.70;;
7933;SDS011;4012;48.896;9.192;2022-07-29T02:37:10;9.83;;;5.43;;
7933;SDS011;4012;48.896;9.192;2022-07-29T02:39:37;6.37;;;5.13;;
7933;SDS011;4012;48.896;9.192;2022-07-29T02:42:07;5.87;;;5.27;;
7933;SDS011;4012;48.896;9.192;2022-07-29T02:44:34;7.03;;;5.07;;
7933;SDS011;4012;48.896;9.192;2022-07-29T02:47:07;6.70;;;5.33;;
7933;SDS011;4012;48.896;9.192;2022-07-29T02:49:40;7.87;;;5.43;;
7933;SDS011;4012;48.896;9.192;2022-07-29T03:00:53;7.90;;;5.27;;
7933;SDS011;4012;48.896;9.192;2022-07-29T03:03:21;6.83;;;4.90;;
7933;SDS011;4012;48.896;9.192;2022-07-29T03:05:51;7.17;;;5.80;;
7933;SDS011;4012;48.896;9.192;2022-07-29T03:08:21;6.07;;;5.57;;
7933;SDS011;4012;48.896;9.192;2022-07-29T03:10:47;6.60;;;5.50;;
7933;SDS011;4012;48.896;9.192;2022-07-29T03:13:14;6.43;;;4.53;;
7933;SDS011;4012;48.896;9.192;2022-07-29T03:15:41;8.60;;;5.50;;
7933;SDS011;4012;48.896;9.192;2022-07-29T03:18:08;6.20;;;5.07;;
7933;SDS011;4012;48.896;9.192;2022-07-29T03:20:35;6.73;;;5.23;;
7933;SDS011;4012;48.896;9.192;2022-07-29T03:23:02;5.83;;;5.00;;
7933;SDS011;4012;48.896;9.192;2022-07-29T03:25:28;8.40;;;5.17;;
7933;SDS011;4012;48.896;9.192;2022-07-29T03:27:53;6.23;;;4.70;;
7933;SDS011;4012;48.896;9.192;2022-07-29T03:30:19;5.73;;;5.13;;
7933;SDS011;4012;48.896;9.192;2022-07-29T03:32:45;5.00;;;4.60;;
7933;SDS011;4012;48.896;9.192;2022-07-29T03:35:10;5.70;;;5.20;;
7933;SDS011;4012;48.896;9.192;2022-07-29T03:37:36;5.50;;;4.90;;
7933;SDS011;4012;48.896;9.192;2022-07-29T03:40:02;5.67;;;5.03;;
7933;SDS011;4012;48.896;9.192;2022-07-29T03:42:32;5.37;;;4.60;;
7933;SDS011;4012;48.896;9.192;2022-07-29T03:45:03;7.60;;;4.63;;
7933;SDS011;4012;48.896;9.192;2022-07-29T03:47:32;5.83;;;5.07;;
7933;SDS011;4012;48.896;9.192;2022-07-29T03:50:01;6.60;;;5.10;;
7933;SDS011;4012;48.896;9.192;2022-07-29T03:52:30;6.87;;;4.30;;
7933;SDS011;4012;48.896;9.192;2022-07-29T03:54:56;5.67;;;4.40;;
7933;SDS011;4012;48.896;9.192;2022-07-29T03:57:23;5.63;;;4.50;;
7933;SDS011;4012;48.896;9.192;2022-07-29T03:59:52;6.90;;;4.87;;
7933;SDS011;4012;48.896;9.192;2022-07-29T04:02:18;6.03;;;4.53;;
7933;SDS011;4012;48.896;9.192;2022-07-29T04:04:45;6.87;;;4.80;;
7933;SDS011;4012;48.896;9.192;2022-07-29T04:07:14;4.57;;;4.17;;
7933;SDS011;4012;48.896;9.192;2022-07-29T04:09:40;8.77;;;4.63;;
7933;SDS011;4012;48.896;9.192;2022-07-29T04:12:07;5.20;;;4.70;;
7933;SDS011;4012;48.896;9.192;2022-07-29T04:14:33;5.80;;;5.10;;
7933;SDS011;4012;48.896;9.192;2022-07-29T04:17:00;5.13;;;4.63;;
7933;SDS011;4012;48.896;9.192;2022-07-29T04:19:26;6.47;;;4.87;;
7933;SDS011;4012;48.896;9.192;2022-07-29T04:21:52;4.93;;;4.53;;
7933;SDS011;4012;48.896;9.192;2022-07-29T04:24:17;5.83;;;4.90;;
7933;SDS011;4012;48.896;9.192;2022-07-29T04:26:43;5.67;;;4.80;;
7933;SDS011;4012;48.896;9.192;2022-07-29T04:29:10;5.80;;;5.20;;
7933;SDS011;4012;48.896;9.192;2022-07-29T04:31:36;6.77;;;4.90;;
7933;SDS011;4012;48.896;9.192;2022-07-29T04:34:03;5.30;;;4.47;;
7933;SDS011;4012;48.896;9.192;2022-07-29T04:36:28;5.60;;;5.10;;
7933;SDS011;4012;48.896;9.192;2022-07-29T04:38:54;6.53;;;4.80;;
7933;SDS011;4012;48.896;9.192;2022-07-29T04:41:20;5.40;;;4.90;;
7933;SDS011;4012;48.896;9.192;2022-07-29T04:43:45;7.03;;;5.13;;
7933;SDS011;4012;48.896;9.192;2022-07-29T04:46:11;8.00;;;5.23;;
7933;SDS011;4012;48.896;9.192;2022-07-29T04:48:36;5.23;;;4.73;;
7933;SDS011;4012;48.896;9.192;2022-07-29T04:51:02;5.43;;;4.67;;
7933;SDS011;4012;48.896;9.192;2022-07-29T04:53:28;7.97;;;5.50;;
7933;SDS011;4012;48.896;9.192;2022-07-29T04:55:53;5.83;;;5.10;;
7933;SDS011;4012;48.896;9.192;2022-07-29T04:58:19;8.70;;;5.10;;
7933;SDS011;4012;48.896;9.192;2022-07-29T05:00:45;6.27;;;4.90;;
7933;SDS011;4012;48.896;9.192;2022-07-29T05:03:10;6.10;;;5.10;;
7933;SDS011;4012;48.896;9.192;2022-07-29T05:05:36;5.63;;;5.13;;
7933;SDS011;4012;48.896;9.192;2022-07-29T05:08:02;5.50;;;5.00;;
7933;SDS011;4012;48.896;9.192;2022-07-29T05:10:27;7.40;;;4.87;;
7933;SDS011;4012;48.896;9.192;2022-07-29T05:12:53;6.53;;;5.00;;
7933;SDS011;4012;48.896;9.192;2022-07-29T05:15:19;7.47;;;5.20;;
7933;SDS011;4012;48.896;9.192;2022-07-29T05:17:44;6.17;;;5.27;;
7933;SDS011;4012;48.896;9.192;2022-07-29T05:20:10;5.70;;;5.20;;
7933;SDS011;4012;48.896;9.192;2022-07-29T05:22:36;6.07;;;5.10;;
7933;SDS011;4012;48.896;9.192;2022-07-29T05:25:01;7.83;;;4.93;;
7933;SDS011;4012;48.896;9.192;2022-07-29T05:27:27;5.70;;;5.00;;
7933;SDS011;4012;48.896;9.192;2022-07-29T05:29:53;5.87;;;4.93;;
7933;SDS011;4012;48.896;9.192;2022-07-29T05:32:19;6.67;;;5.30;;
7933;SDS011;4012;48.896;9.192;2022-07-29T05:34:44;6.43;;;5.23;;
7933;SDS011;4012;48.896;9.192;2022-07-29T05:37:10;7.60;;;5.37;;
7933;SDS011;4012;48.896;9.192;2022-07-29T05:39:38;9.53;;;5.40;;
7933;SDS011;4012;48.896;9.192;2022-07-29T05:42:07;10.67;;;5.77;;
7933;SDS011;4012;48.896;9.192;2022-07-29T05:44:39;6.00;;;5.40;;
7933;SDS011;4012;48.896;9.192;2022-07-29T05:47:05;6.97;;;5.37;;
7933;SDS011;4012;48.896;9.192;2022-07-29T05:49:31;6.93;;;5.30;;
7933;SDS011;4012;48.896;9.192;2022-07-29T05:51:57;6.53;;;5.03;;
7933;SDS011;4012;48.896;9.192;2022-07-29T05:54:23;6.30;;;5.10;;
7933;SDS011;4012;48.896;9.192;2022-07-29T05:56:49;5.20;;;4.70;;
7933;SDS011;4012;48.896;9.192;2022-07-29T05:59:14;8.57;;;4.67;;
7933;SDS011;4012;48.896;9.192;2022-07-29T06:01:40;13.13;;;11.93;;
7933;SDS011;4012;48.896;9.192;2022-07-29T06:04:06;5.33;;;4.27;;
7933;SDS011;4012;48.896;9.192;2022-07-29T06:06:32;5.90;;;4.90;;
7933;SDS011;4012;48.896;9.192;2022-07-29T06:08:58;6.07;;;4.43;;
7933;SDS011;4012;48.896;9.192;2022-07-29T06:11:24;7.00;;;4.53;;
7933;SDS011;4012;48.896;9.192;2022-07-29T06:13:50;6.33;;;4.23;;
7933;SDS011;4012;48.896;9.192;2022-07-29T06:16:15;5.10;;;4.40;;
7933;SDS011;4012;48.896;9.192;2022-07-29T06:18:41;5.90;;;4.77;;
7933;SDS011;4012;48.896;9.192;2022-07-29T06:21:07;5.23;;;4.13;;
7933;SDS011;4012;48.896;9.192;2022-07-29T06:23:34;8.57;;;4.03;;
7933;SDS011;4012;48.896;9.192;2022-07-29T06:26:01;6.20;;;4.40;;
7933;SDS011;4012;48.896;9.192;2022-07-29T06:28:31;4.70;;;3.30;;
7933;SDS011;4012;48.896;9.192;2022-07-29T06:30:57;6.93;;;3.40;;
7933;SDS011;4012;48.896;9.192;2022-07-29T06:33:23;5.80;;;3.47;;
7933;SDS011;4012;48.896;9.192;2022-07-29T06:35:49;6.90;;;3.20;;
7933;SDS011;4012;48.896;9.192;2022-07-29T06:38:15;6.93;;;3.17;;
7933;SDS011;4012;48.896;9.192;2022-07-29T06:40:44;4.27;;;3.20;;
7933;SDS011;4012;48.896;9.192;2022-07-29T06:43:37;3.90;;;3.00;;
7933;SDS011;4012;48.896;9.192;2022-07-29T06:46:07;4.13;;;3.33;;
7933;SDS011;4012;48.896;9.192;2022-07-29T06:48:34;3.73;;;3.00;;
7933;SDS011;4012;48.896;9.192;2022-07-29T06:51:03;6.50;;;3.50;;
7933;SDS011;4012;48.896;9.192;2022-07-29T06:53:32;3.87;;;2.80;;
7933;SDS011;4012;48.896;9.192;2022-07-29T06:55:58;4.57;;;3.10;;
7933;SDS011;4012;48.896;9.192;2022-07-29T06:58:25;9.70;;;3.70;;
7933;SDS011;4012;48.896;9.192;2022-07-29T07:00:52;7.30;;;3.20;;
7933;SDS011;4012;48.896;9.192;2022-07-29T07:03:18;5.20;;;2.87;;
7933;SDS011;4012;48.896;9.192;2022-07-29T07:05:45;6.13;;;2.87;;
7933;SDS011;4012;48.896;9.192;2022-07-29T07:08:11;6.83;;;2.90;;
7933;SDS011;4012;48.896;9.192;2022-07-29T07:10:38;3.67;;;3.00;;
7933;SDS011;4012;48.896;9.192;2022-07-29T07:13:04;4.77;;;2.43;;
7933;SDS011;4012;48.896;9.192;2022-07-29T07:15:30;5.70;;;2.63;;
7933;SDS011;4012;48.896;9.192;2022-07-29T07:17:56;5.10;;;2.60;;
7933;SDS011;4012;48.896;9.192;2022-07-29T07:20:23;6.37;;;2.53;;
7933;SDS011;4012;48.896;9.192;2022-07-29T07:22:49;3.83;;;2.50;;
7933;SDS011;4012;48.896;9.192;2022-07-29T07:25:14;4.43;;;3.10;;
7933;SDS011;4012;48.896;9.192;2022-07-29T07:27:42;5.60;;;2.53;;
7933;SDS011;4012;48.896;9.192;2022-07-29T07:30:08;3.37;;;2.80;;
7933;SDS011;4012;48.896;9.192;2022-07-29T07:32:34;6.23;;;2.97;;
7933;SDS011;4012;48.896;9.192;2022-07-29T07:35:04;3.10;;;2.70;;
7933;SDS011;4012;48.896;9.192;2022-07-29T07:37:30;3.87;;;2.53;;
7933;SDS011;4012;48.896;9.192;2022-07-29T07:39:56;5.97;;;2.60;;
7933;SDS011;4012;48.896;9.192;2022-07-29T07:42:22;4.27;;;2.47;;
7933;SDS011;4012;48.896;9.192;2022-07-29T07:44:48;4.57;;;2.40;;
7933;SDS011;4012;48.896;9.192;2022-07-29T07:47:14;5.53;;;2.70;;
7933;SDS011;4012;48.896;9.192;2022-07-29T07:49:44;6.67;;;2.80;;
7933;SDS011;4012;48.896;9.192;2022-07-29T07:52:14;4.57;;;2.50;;
7933;SDS011;4012;48.896;9.192;2022-07-29T07:54:40;7.63;;;2.83;;
7933;SDS011;4012;48.896;9.192;2022-07-29T07:57:06;3.13;;;2.72;;
7933;SDS011;4012;48.896;9.192;2022-07-29T07:59:32;4.43;;;2.60;;
7933;SDS011;4012;48.896;9.192;2022-07-29T08:01:57;3.85;;;2.95;;
7933;SDS011;4012;48.896;9.192;2022-07-29T08:04:23;3.37;;;3.07;;
7933;SDS011;4012;48.896;9.192;2022-07-29T08:06:49;8.37;;;3.27;;
7933;SDS011;4012;48.896;9.192;2022-07-29T08:09:15;4.07;;;2.80;;
7933;SDS011;4012;48.896;9.192;2022-07-29T08:11:41;3.10;;;2.80;;
7933;SDS011;4012;48.896;9.192;2022-07-29T08:14:07;7.70;;;2.93;;
7933;SDS011;4012;48.896;9.192;2022-07-29T08:16:32;5.00;;;2.90;;
7933;SDS011;4012;48.896;9.192;2022-07-29T08:18:58;5.23;;;3.20;;
7933;SDS011;4012;48.896;9.192;2022-07-29T08:21:24;4.43;;;2.77;;
7933;SDS011;4012;48.896;9.192;2022-07-29T08:23:50;5.47;;;2.90;;
7933;SDS011;4012;48.896;9.192;2022-07-29T08:26:18;10.00;;;3.00;;
7933;SDS011;4012;48.896;9.192;2022-07-29T08:28:44;5.93;;;2.60;;
7933;SDS011;4012;48.896;9.192;2022-07-29T08:31:11;3.43;;;2.80;;
7933;SDS011;4012;48.896;9.192;2022-07-29T08:33:37;5.40;;;2.87;;
7933;SDS011;4012;48.896;9.192;2022-07-29T08:36:04;6.57;;;3.00;;
7933;SDS011;4012;48.896;9.192;2022-07-29T08:38:31;4.60;;;2.70;;
7933;SDS011;4012;48.896;9.192;2022-07-29T08:40:58;3.75;;;2.45;;
7933;SDS011;4012;48.896;9.192;2022-07-29T08:43:25;5.13;;;3.00;;
7933;SDS011;4012;48.896;9.192;2022-07-29T08:45:52;9.73;;;3.00;;
7933;SDS011;4012;48.896;9.192;2022-07-29T08:48:19;6.72;;;2.70;;
7933;SDS011;4012;48.896;9.192;2022-07-29T08:50:47;5.07;;;2.65;;
7933;SDS011;4012;48.896;9.192;2022-07-29T08:53:15;6.40;;;3.17;;
7933;SDS011;4012;48.896;9.192;2022-07-29T08:55:43;3.75;;;2.58;;
7933;SDS011;4012;48.896;9.192;2022-07-29T08:58:15;4.88;;;2.95;;
7933;SDS011;4012;48.896;9.192;2022-07-29T09:00:46;4.20;;;3.20;;
7933;SDS011;4012;48.896;9.192;2022-07-29T09:03:18;5.22;;;2.83;;
7933;SDS011;4012;48.896;9.192;2022-07-29T09:05:45;5.00;;;2.53;;
7933;SDS011;4012;48.896;9.192;2022-07-29T09:08:12;3.70;;;2.40;;
7933;SDS011;4012;48.896;9.192;2022-07-29T09:10:39;3.90;;;2.50;;
7933;SDS011;4012;48.896;9.192;2022-07-29T09:13:04;5.43;;;2.65;;
7933;SDS011;4012;48.896;9.192;2022-07-29T09:15:30;4.40;;;2.67;;
7933;SDS011;4012;48.896;9.192;2022-07-29T09:17:56;6.55;;;2.97;;
7933;SDS011;4012;48.896;9.192;2022-07-29T09:20:23;4.22;;;3.13;;
7933;SDS011;4012;48.896;9.192;2022-07-29T09:22:50;8.25;;;3.25;;
7933;SDS011;4012;48.896;9.192;2022-07-29T09:25:38;3.25;;;2.47;;
7933;SDS011;4012;48.896;9.192;2022-07-29T09:28:09;8.82;;;3.38;;
7933;SDS011;4012;48.896;9.192;2022-07-29T09:30:36;5.60;;;3.00;;
7933;SDS011;4012;48.896;9.192;2022-07-29T09:33:19;7.13;;;3.15;;
7933;SDS011;4012;48.896;9.192;2022-07-29T09:35:57;8.85;;;2.72;;
7933;SDS011;4012;48.896;9.192;2022-07-29T09:38:31;8.77;;;2.90;;
7933;SDS011;4012;48.896;9.192;2022-07-29T09:40:58;4.97;;;2.70;;
7933;SDS011;4012;48.896;9.192;2022-07-29T09:43:25;5.40;;;2.65;;
7933;SDS011;4012;48.896;9.192;2022-07-29T09:45:51;5.28;;;2.50;;
7933;SDS011;4012;48.896;9.192;2022-07-29T09:48:17;5.07;;;2.38;;
7933;SDS011;4012;48.896;9.192;2022-07-29T09:50:44;5.90;;;2.90;;
7933;SDS011;4012;48.896;9.192;2022-07-29T09:53:11;3.80;;;2.70;;
7933;SDS011;4012;48.896;9.192;2022-07-29T09:55:54;2.58;;;2.33;;
7933;SDS011;4012;48.896;9.192;2022-07-29T09:58:20;4.03;;;2.88;;
7933;SDS011;4012;48.896;9.192;2022-07-29T10:00:48;5.60;;;2.78;;
7933;SDS011;4012;48.896;9.192;2022-07-29T10:03:15;11.50;;;3.17;;
7933;SDS011;4012;48.896;9.192;2022-07-29T10:05:41;6.90;;;3.22;;
7933;SDS011;4012;48.896;9.192;2022-07-29T10:08:08;8.48;;;2.67;;
7933;SDS011;4012;48.896;9.192;2022-07-29T10:10:36;6.25;;;3.20;;
7933;SDS011;4012;48.896;9.192;2022-07-29T10:13:08;3.83;;;2.83;;
7933;SDS011;4012;48.896;9.192;2022-07-29T10:15:36;4.25;;;2.80;;
7933;SDS011;4012;48.896;9.192;2022-07-29T10:18:05;4.90;;;3.53;;
7933;SDS011;4012;48.896;9.192;2022-07-29T10:20:32;9.25;;;3.20;;
7933;SDS011;4012;48.896;9.192;2022-07-29T10:22:58;8.63;;;3.03;;
7933;SDS011;4012;48.896;9.192;2022-07-29T10:25:24;10.73;;;3.33;;
7933;SDS011;4012;48.896;9.192;2022-07-29T10:27:51;7.23;;;3.27;;
7933;SDS011;4012;48.896;9.192;2022-07-29T10:30:17;8.10;;;3.27;;
7933;SDS011;4012;48.896;9.192;2022-07-29T10:41:18;6.53;;;3.80;;
7933;SDS011;4012;48.896;9.192;2022-07-29T10:46:47;6.00;;;3.00;;
7933;SDS011;4012;48.896;9.192;2022-07-29T10:49:14;8.00;;;3.67;;
7933;SDS011;4012;48.896;9.192;2022-07-29T10:57:11;6.77;;;3.67;;
7933;SDS011;4012;48.896;9.192;2022-07-29T10:59:37;10.07;;;3.30;;
7933;SDS011;4012;48.896;9.192;2022-07-29T11:02:40;9.67;;;3.63;;
7933;SDS011;4012;48.896;9.192;2022-07-29T11:10:36;8.17;;;3.70;;
7933;SDS011;4012;48.896;9.192;2022-07-29T11:13:02;7.70;;;2.90;;
7933;SDS011;4012;48.896;9.192;2022-07-29T11:15:28;7.10;;;3.30;;
7933;SDS011;4012;48.896;9.192;2022-07-29T11:20:44;6.20;;;3.57;;
7933;SDS011;4012;48.896;9.192;2022-07-29T11:28:32;9.47;;;3.47;;
7933;SDS011;4012;48.896;9.192;2022-07-29T11:31:00;6.63;;;3.00;;
7933;SDS011;4012;48.896;9.192;2022-07-29T11:33:30;7.70;;;2.80;;
7933;SDS011;4012;48.896;9.192;2022-07-29T11:36:14;8.70;;;2.87;;
7933;SDS011;4012;48.896;9.192;2022-07-29T11:38:40;7.13;;;3.03;;
7933;SDS011;4012;48.896;9.192;2022-07-29T11:43:52;6.30;;;2.80;;
7933;SDS011;4012;48.896;9.192;2022-07-29T11:49:10;7.20;;;3.50;;
7933;SDS011;4012;48.896;9.192;2022-07-29T11:51:37;5.87;;;3.10;;
7933;SDS011;4012;48.896;9.192;2022-07-29T11:54:03;4.40;;;3.13;;
7933;SDS011;4012;48.896;9.192;2022-07-29T11:56:33;5.33;;;3.20;;
7933;SDS011;4012;48.896;9.192;2022-07-29T11:59:04;10.40;;;3.83;;
7933;SDS011;4012;48.896;9.192;2022-07-29T12:01:32;7.03;;;3.70;;
7933;SDS011;4012;48.896;9.192;2022-07-29T12:04:07;5.87;;;3.57;;
7933;SDS011;4012;48.896;9.192;2022-07-29T12:06:35;6.87;;;4.00;;
7933;SDS011;4012;48.896;9.192;2022-07-29T12:09:07;6.63;;;3.80;;
7933;SDS011;4012;48.896;9.192;2022-07-29T12:11:33;5.93;;;3.53;;
7933;SDS011;4012;48.896;9.192;2022-07-29T12:13:59;3.97;;;3.20;;
7933;SDS011;4012;48.896;9.192;2022-07-29T12:16:34;4.17;;;3.77;;
7933;SDS011;4012;48.896;9.192;2022-07-29T12:19:00;6.57;;;3.30;;
7933;SDS011;4012;48.896;9.192;2022-07-29T12:21:27;5.43;;;3.70;;
7933;SDS011;4012;48.896;9.192;2022-07-29T12:24:13;4.30;;;3.40;;
7933;SDS011;4012;48.896;9.192;2022-07-29T12:29:21;8.43;;;3.10;;
7933;SDS011;4012;48.896;9.192;2022-07-29T12:31:50;7.00;;;2.97;;
7933;SDS011;4012;48.896;9.192;2022-07-29T12:34:19;4.83;;;3.43;;
7933;SDS011;4012;48.896;9.192;2022-07-29T12:36:47;4.60;;;3.77;;
7933;SDS011;4012;48.896;9.192;2022-07-29T12:39:15;4.57;;;3.63;;
7933;SDS011;4012;48.896;9.192;2022-07-29T12:41:42;10.40;;;3.53;;
7933;SDS011;4012;48.896;9.192;2022-07-29T12:44:09;6.07;;;3.20;;
7933;SDS011;4012;48.896;9.192;2022-07-29T12:46:35;4.60;;;3.50;;
7933;SDS011;4012;48.896;9.192;2022-07-29T12:49:00;5.03;;;3.40;;
7933;SDS011;4012;48.896;9.192;2022-07-29T12:51:30;6.23;;;3.23;;
7933;SDS011;4012;48.896;9.192;2022-07-29T12:54:11;3.63;;;2.80;;
7933;SDS011;4012;48.896;9.192;2022-07-29T12:56:39;4.60;;;2.63;;
7933;SDS011;4012;48.896;9.192;2022-07-29T12:59:18;4.47;;;3.00;;
7933;SDS011;4012;48.896;9.192;2022-07-29T13:01:46;6.33;;;3.00;;
7933;SDS011;4012;48.896;9.192;2022-07-29T13:04:24;6.37;;;2.90;;
7933;SDS011;4012;48.896;9.192;2022-07-29T13:07:03;5.23;;;3.10;;
7933;SDS011;4012;48.896;9.192;2022-07-29T13:12:08;5.67;;;3.30;;
7933;SDS011;4012;48.896;9.192;2022-07-29T13:14:37;7.70;;;3.53;;
7933;SDS011;4012;48.896;9.192;2022-07-29T13:17:05;5.77;;;3.53;;
7933;SDS011;4012;48.896;9.192;2022-07-29T13:19:35;4.80;;;3.20;;
7933;SDS011;4012;48.896;9.192;2022-07-29T13:22:05;6.30;;;2.97;;
7933;SDS011;4012;48.896;9.192;2022-07-29T13:24:59;3.30;;;2.97;;
7933;SDS011;4012;48.896;9.192;2022-07-29T13:27:31;6.13;;;3.20;;
7933;SDS011;4012;48.896;9.192;2022-07-29T13:30:00;7.23;;;2.93;;
7933;SDS011;4012;48.896;9.192;2022-07-29T13:32:27;4.37;;;2.90;;
7933;SDS011;4012;48.896;9.192;2022-07-29T13:34:54;2.70;;;2.50;;
7933;SDS011;4012;48.896;9.192;2022-07-29T13:37:25;2.97;;;2.70;;
7933;SDS011;4012;48.896;9.192;2022-07-29T13:39:54;5.17;;;2.60;;
7933;SDS011;4012;48.896;9.192;2022-07-29T13:42:23;4.50;;;2.70;;
7933;SDS011;4012;48.896;9.192;2022-07-29T13:44:49;4.20;;;2.60;;
7933;SDS011;4012;48.896;9.192;2022-07-29T13:47:16;3.47;;;2.50;;
7933;SDS011;4012;48.896;9.192;2022-07-29T13:49:42;2.70;;;2.27;;
7933;SDS011;4012;48.896;9.192;2022-07-29T13:52:08;3.33;;;2.70;;
7933;SDS011;4012;48.896;9.192;2022-07-29T13:54:34;5.43;;;2.80;;
7933;SDS011;4012;48.896;9.192;2022-07-29T13:57:06;4.90;;;2.60;;
7933;SDS011;4012;48.896;9.192;2022-07-29T13:59:32;3.07;;;2.73;;
7933;SDS011;4012;48.896;9.192;2022-07-29T14:01:58;3.70;;;2.40;;
7933;SDS011;4012;48.896;9.192;2022-07-29T14:04:24;4.37;;;2.70;;
7933;SDS011;4012;48.896;9.192;2022-07-29T14:06:50;4.50;;;2.80;;
7933;SDS011;4012;48.896;9.192;2022-07-29T14:09:16;4.17;;;2.47;;
7933;SDS011;4012;48.896;9.192;2022-07-29T14:11:41;4.10;;;2.87;;
7933;SDS011;4012;48.896;9.192;2022-07-29T14:14:07;4.80;;;2.57;;
7933;SDS011;4012;48.896;9.192;2022-07-29T14:16:33;7.20;;;3.37;;
7933;SDS011;4012;48.896;9.192;2022-07-29T14:18:59;4.67;;;2.87;;
7933;SDS011;4012;48.896;9.192;2022-07-29T14:21:27;5.13;;;2.80;;
7933;SDS011;4012;48.896;9.192;2022-07-29T14:23:53;3.67;;;3.00;;
7933;SDS011;4012;48.896;9.192;2022-07-29T14:26:19;4.00;;;2.90;;
7933;SDS011;4012;48.896;9.192;2022-07-29T14:28:46;3.77;;;2.67;;
7933;SDS011;4012;48.896;9.192;2022-07-29T14:31:15;4.90;;;3.17;;
7933;SDS011;4012;48.896;9.192;2022-07-29T14:33:41;4.80;;;3.23;;
7933;SDS011;4012;48.896;9.192;2022-07-29T14:36:08;3.43;;;2.70;;
7933;SDS011;4012;48.896;9.192;2022-07-29T14:38:34;5.77;;;3.13;;
7933;SDS011;4012;48.896;9.192;2022-07-29T14:41:03;7.00;;;3.37;;
7933;SDS011;4012;48.896;9.192;2022-07-29T14:43:29;3.23;;;2.93;;
7933;SDS011;4012;48.896;9.192;2022-07-29T14:45:55;5.27;;;3.03;;
7933;SDS011;4012;48.896;9.192;2022-07-29T14:48:20;6.97;;;3.40;;
7933;SDS011;4012;48.896;9.192;2022-07-29T14:50:47;5.23;;;3.53;;
7933;SDS011;4012;48.896;9.192;2022-07-29T14:53:13;9.17;;;2.97;;
7933;SDS011;4012;48.896;9.192;2022-07-29T14:55:39;3.23;;;2.83;;
7933;SDS011;4012;48.896;9.192;2022-07-29T14:58:05;6.33;;;3.33;;
7933;SDS011;4012;48.896;9.192;2022-07-29T15:00:31;3.77;;;2.87;;
7933;SDS011;4012;48.896;9.192;2022-07-29T15:02:58;6.40;;;3.27;;
7933;SDS011;4012;48.896;9.192;2022-07-29T15:05:25;6.23;;;3.50;;
7933;SDS011;4012;48.896;9.192;2022-07-29T15:07:51;5.43;;;3.33;;
7933;SDS011;4012;48.896;9.192;2022-07-29T15:10:16;6.33;;;3.67;;
7933;SDS011;4012;48.896;9.192;2022-07-29T15:12:42;5.00;;;3.33;;
7933;SDS011;4012;48.896;9.192;2022-07-29T15:15:08;6.80;;;3.47;;
7933;SDS011;4012;48.896;9.192;2022-07-29T15:17:34;6.67;;;3.50;;
7933;SDS011;4012;48.896;9.192;2022-07-29T15:19:59;6.93;;;4.37;;
7933;SDS011;4012;48.896;9.192;2022-07-29T15:22:25;8.90;;;3.93;;
7933;SDS011;4012;48.896;9.192;2022-07-29T15:24:51;6.13;;;3.70;;
7933;SDS011;4012;48.896;9.192;2022-07-29T15:27:17;7.23;;;2.80;;
7933;SDS011;4012;48.896;9.192;2022-07-29T15:29:43;4.80;;;2.30;;
7933;SDS011;4012;48.896;9.192;2022-07-29T15:32:09;6.27;;;3.20;;
7933;SDS011;4012;48.896;9.192;2022-07-29T15:34:36;2.70;;;2.30;;
7933;SDS011;4012;48.896;9.192;2022-07-29T15:37:06;9.80;;;3.00;;
7933;SDS011;4012;48.896;9.192;2022-07-29T15:39:31;6.60;;;2.80;;
7933;SDS011;4012;48.896;9.192;2022-07-29T15:41:57;4.60;;;2.30;;
7933;SDS011;4012;48.896;9.192;2022-07-29T15:44:25;7.00;;;2.20;;
7933;SDS011;4012;48.896;9.192;2022-07-29T15:46:51;6.27;;;2.40;;
7933;SDS011;4012;48.896;9.192;2022-07-29T15:49:32;9.17;;;3.73;;
7933;SDS011;4012;48.896;9.192;2022-07-29T15:52:00;5.80;;;2.97;;
7933;SDS011;4012;48.896;9.192;2022-07-29T15:54:28;4.30;;;2.40;;
7933;SDS011;4012;48.896;9.192;2022-07-29T15:56:54;6.53;;;2.00;;
7933;SDS011;4012;48.896;9.192;2022-07-29T15:59:20;9.47;;;2.50;;
7933;SDS011;4012;48.896;9.192;2022-07-29T16:01:46;4.40;;;3.17;;
7933;SDS011;4012;48.896;9.192;2022-07-29T16:04:12;5.37;;;2.10;;
7933;SDS011;4012;48.896;9.192;2022-07-29T16:06:38;10.50;;;4.20;;
7933;SDS011;4012;48.896;9.192;2022-07-29T16:09:03;7.53;;;2.57;;
7933;SDS011;4012;48.896;9.192;2022-07-29T16:11:29;5.77;;;2.13;;
7933;SDS011;4012;48.896;9.192;2022-07-29T16:13:55;6.30;;;2.33;;
7933;SDS011;4012;48.896;9.192;2022-07-29T16:16:20;5.83;;;2.87;;
7933;SDS011;4012;48.896;9.192;2022-07-29T16:18:46;5.13;;;3.10;;
7933;SDS011;4012;48.896;9.192;2022-07-29T16:21:12;6.93;;;3.43;;
7933;SDS011;4012;48.896;9.192;2022-07-29T16:23:38;2.83;;;2.00;;
7933;SDS011;4012;48.896;9.192;2022-07-29T16:26:04;4.03;;;2.17;;